Portada
METAR-TAF:

METAR-TAF

Aeroports :

Ulan-Udè, Rússia

latitud: 51-50N, longitud: 107-36E, altitud: 510 m

Observació

L'informe es va fer fa 32 minuts, a les 19:00 UTC
Vent 16 kt del Nord/Nord-Oest
Temperatura 3°C
Humitat 65%
Pressió 1017 hPa
Visibilitat 10 km o més
Núvols disperses a una alçada de 4000 ft, Cumulonimbus.

METAR: UIUU 301900Z 33008MPS 9999 SCT040CB 03/M03 Q1017 R26/190060 NOSIG RMK QFE719/0958

Hora: 03:32 (19:32 UTC)

Pronòstic

L'informe es va fer fa 2 hores i 32 minuts, a les 17:00 UTC
Pronòstic vàlid del 30 a les 18 UTC al 01 a les 18 UTC
Vent 16 kt del Nord/Nord-Oest amb ràfegues de 27 kt
Visibilitat 10 km o més
Cel ennuvolat a una alçada de 3000 ft, Cumulonimbus.
Temporalment
l' 30 a les 18 UTC al 01 a les 18 UTC
Vent 6 kt del Nord-Oest amb ràfegues de 16 kt
Visibilitat: 2500 m
Cel cobert a una alçada de 1100 ft, Cumulonimbus.
xàfecs de neu, pluja

TAF: UIUU 301700Z 3018/0118 34008G14MPS 9999 BKN030CB TEMPO 3018/0118 32003G08MPS 2500 -SHSNRA OVC011CB

Observacions i pronòstics meteorològics de més de 4000 aeroports (METAR i TAF).

Les estacions disponibles són els punts grocs i vermells al mapa.

Posi el ratolí al punt desitjat per veure el nom de l'estació.

Feu clic per veure les observacions i els pronòstics meteorològics.

Per canviar el mapa: feu clic els botons verds amb una creu de color negre per apropar; al botó verd amb un guió per allunyar la imatge; o en les fletxes verdes per a mapes adjacents.


METAR-TAF: